sensor_id;sensor_type;location;lat;lon;timestamp;P1;durP1;ratioP1;P2;durP2;ratioP2
7029;SDS011;3556;53.500;10.176;2022-08-01T00:01:00;13.27;;;12.27;;
7029;SDS011;3556;53.500;10.176;2022-08-01T00:03:25;15.33;;;12.60;;
7029;SDS011;3556;53.500;10.176;2022-08-01T00:05:51;16.63;;;14.93;;
7029;SDS011;3556;53.500;10.176;2022-08-01T00:08:17;15.13;;;13.73;;
7029;SDS011;3556;53.500;10.176;2022-08-01T00:10:42;19.00;;;16.53;;
7029;SDS011;3556;53.500;10.176;2022-08-01T00:13:08;17.10;;;15.13;;
7029;SDS011;3556;53.500;10.176;2022-08-01T00:15:34;18.77;;;17.03;;
7029;SDS011;3556;53.500;10.176;2022-08-01T00:17:59;19.70;;;18.00;;
7029;SDS011;3556;53.500;10.176;2022-08-01T00:20:26;20.43;;;18.23;;
7029;SDS011;3556;53.500;10.176;2022-08-01T00:22:51;19.67;;;17.97;;
7029;SDS011;3556;53.500;10.176;2022-08-01T00:25:17;21.30;;;19.20;;
7029;SDS011;3556;53.500;10.176;2022-08-01T00:27:43;19.43;;;17.40;;
7029;SDS011;3556;53.500;10.176;2022-08-01T00:30:08;19.53;;;17.63;;
7029;SDS011;3556;53.500;10.176;2022-08-01T00:32:34;15.73;;;14.10;;
7029;SDS011;3556;53.500;10.176;2022-08-01T00:35:00;15.87;;;14.33;;
7029;SDS011;3556;53.500;10.176;2022-08-01T00:37:25;15.67;;;13.90;;
7029;SDS011;3556;53.500;10.176;2022-08-01T00:39:51;16.20;;;13.93;;
7029;SDS011;3556;53.500;10.176;2022-08-01T00:42:17;13.90;;;12.70;;
7029;SDS011;3556;53.500;10.176;2022-08-01T00:44:42;13.80;;;12.53;;
7029;SDS011;3556;53.500;10.176;2022-08-01T00:47:08;14.13;;;12.83;;
7029;SDS011;3556;53.500;10.176;2022-08-01T00:49:34;13.57;;;12.47;;
7029;SDS011;3556;53.500;10.176;2022-08-01T00:52:00;15.40;;;11.87;;
7029;SDS011;3556;53.500;10.176;2022-08-01T00:54:27;15.80;;;14.20;;
7029;SDS011;3556;53.500;10.176;2022-08-01T00:56:53;15.70;;;14.20;;
7029;SDS011;3556;53.500;10.176;2022-08-01T00:59:20;15.90;;;14.50;;
7029;SDS011;3556;53.500;10.176;2022-08-01T01:01:47;15.97;;;14.03;;
7029;SDS011;3556;53.500;10.176;2022-08-01T01:04:13;16.20;;;14.80;;
7029;SDS011;3556;53.500;10.176;2022-08-01T01:06:56;16.87;;;15.17;;
7029;SDS011;3556;53.500;10.176;2022-08-01T01:12:24;20.10;;;17.33;;
7029;SDS011;3556;53.500;10.176;2022-08-01T01:17:48;20.90;;;16.80;;
7029;SDS011;3556;53.500;10.176;2022-08-01T01:26:28;17.93;;;16.17;;
7029;SDS011;3556;53.500;10.176;2022-08-01T01:29:18;17.23;;;15.40;;
7029;SDS011;3556;53.500;10.176;2022-08-01T01:34:28;15.03;;;13.63;;
7029;SDS011;3556;53.500;10.176;2022-08-01T01:36:56;22.93;;;13.17;;
7029;SDS011;3556;53.500;10.176;2022-08-01T01:39:24;13.13;;;11.10;;
7029;SDS011;3556;53.500;10.176;2022-08-01T01:41:51;14.23;;;12.80;;
7029;SDS011;3556;53.500;10.176;2022-08-01T01:44:19;16.03;;;11.70;;
7029;SDS011;3556;53.500;10.176;2022-08-01T01:46:45;13.70;;;11.50;;
7029;SDS011;3556;53.500;10.176;2022-08-01T01:49:12;13.73;;;12.43;;
7029;SDS011;3556;53.500;10.176;2022-08-01T01:51:39;12.53;;;11.53;;
7029;SDS011;3556;53.500;10.176;2022-08-01T01:54:08;13.43;;;11.70;;
7029;SDS011;3556;53.500;10.176;2022-08-01T01:56:35;12.03;;;10.80;;
7029;SDS011;3556;53.500;10.176;2022-08-01T01:59:13;12.13;;;10.80;;
7029;SDS011;3556;53.500;10.176;2022-08-01T02:01:48;11.37;;;10.57;;
7029;SDS011;3556;53.500;10.176;2022-08-01T02:04:16;11.73;;;10.63;;
7029;SDS011;3556;53.500;10.176;2022-08-01T02:06:43;11.83;;;10.60;;
7029;SDS011;3556;53.500;10.176;2022-08-01T02:09:11;15.20;;;10.47;;
7029;SDS011;3556;53.500;10.176;2022-08-01T02:11:42;10.70;;;9.80;;
7029;SDS011;3556;53.500;10.176;2022-08-01T02:14:09;10.70;;;10.00;;
7029;SDS011;3556;53.500;10.176;2022-08-01T02:16:37;17.10;;;11.20;;
7029;SDS011;3556;53.500;10.176;2022-08-01T02:19:06;11.33;;;10.47;;
7029;SDS011;3556;53.500;10.176;2022-08-01T02:21:37;12.20;;;10.77;;
7029;SDS011;3556;53.500;10.176;2022-08-01T02:26:50;12.03;;;11.00;;
7029;SDS011;3556;53.500;10.176;2022-08-01T02:29:27;13.07;;;11.87;;
7029;SDS011;3556;53.500;10.176;2022-08-01T02:32:04;16.00;;;11.10;;
7029;SDS011;3556;53.500;10.176;2022-08-01T02:34:32;11.87;;;10.77;;
7029;SDS011;3556;53.500;10.176;2022-08-01T02:37:00;15.27;;;10.83;;
7029;SDS011;3556;53.500;10.176;2022-08-01T02:39:29;11.17;;;9.60;;
7029;SDS011;3556;53.500;10.176;2022-08-01T02:41:57;9.57;;;9.07;;
7029;SDS011;3556;53.500;10.176;2022-08-01T02:44:28;10.53;;;9.60;;
7029;SDS011;3556;53.500;10.176;2022-08-01T02:46:58;11.30;;;10.17;;
7029;SDS011;3556;53.500;10.176;2022-08-01T02:49:29;11.23;;;9.43;;
7029;SDS011;3556;53.500;10.176;2022-08-01T02:52:01;11.80;;;10.20;;
7029;SDS011;3556;53.500;10.176;2022-08-01T02:54:39;16.70;;;10.50;;
7029;SDS011;3556;53.500;10.176;2022-08-01T02:57:06;12.43;;;10.70;;
7029;SDS011;3556;53.500;10.176;2022-08-01T02:59:34;10.00;;;8.93;;
7029;SDS011;3556;53.500;10.176;2022-08-01T03:02:02;9.00;;;8.40;;
7029;SDS011;3556;53.500;10.176;2022-08-01T03:04:30;17.00;;;9.70;;
7029;SDS011;3556;53.500;10.176;2022-08-01T03:06:58;9.17;;;8.40;;
7029;SDS011;3556;53.500;10.176;2022-08-01T03:09:27;8.23;;;7.80;;
7029;SDS011;3556;53.500;10.176;2022-08-01T03:11:55;9.50;;;8.67;;
7029;SDS011;3556;53.500;10.176;2022-08-01T03:14:26;9.37;;;8.63;;
7029;SDS011;3556;53.500;10.176;2022-08-01T03:16:53;9.57;;;8.43;;
7029;SDS011;3556;53.500;10.176;2022-08-01T03:19:21;9.70;;;8.97;;
7029;SDS011;3556;53.500;10.176;2022-08-01T03:21:49;12.67;;;8.67;;
7029;SDS011;3556;53.500;10.176;2022-08-01T03:24:16;9.57;;;8.63;;
7029;SDS011;3556;53.500;10.176;2022-08-01T03:26:42;7.93;;;7.33;;
7029;SDS011;3556;53.500;10.176;2022-08-01T03:29:14;10.30;;;8.40;;
7029;SDS011;3556;53.500;10.176;2022-08-01T03:31:43;8.67;;;7.87;;
7029;SDS011;3556;53.500;10.176;2022-08-01T03:34:11;9.60;;;8.80;;
7029;SDS011;3556;53.500;10.176;2022-08-01T03:36:46;9.77;;;8.97;;
7029;SDS011;3556;53.500;10.176;2022-08-01T03:39:14;8.90;;;7.97;;
7029;SDS011;3556;53.500;10.176;2022-08-01T03:41:43;10.30;;;7.90;;
7029;SDS011;3556;53.500;10.176;2022-08-01T03:44:14;9.27;;;8.37;;
7029;SDS011;3556;53.500;10.176;2022-08-01T03:46:53;8.17;;;7.63;;
7029;SDS011;3556;53.500;10.176;2022-08-01T03:49:35;7.97;;;7.53;;
7029;SDS011;3556;53.500;10.176;2022-08-01T03:52:07;8.50;;;8.00;;
7029;SDS011;3556;53.500;10.176;2022-08-01T03:54:38;10.97;;;9.20;;
7029;SDS011;3556;53.500;10.176;2022-08-01T03:57:07;9.57;;;8.67;;
7029;SDS011;3556;53.500;10.176;2022-08-01T03:59:35;8.77;;;7.97;;
7029;SDS011;3556;53.500;10.176;2022-08-01T04:02:02;10.30;;;9.47;;
7029;SDS011;3556;53.500;10.176;2022-08-01T04:04:28;9.73;;;7.60;;
7029;SDS011;3556;53.500;10.176;2022-08-01T04:06:54;7.60;;;7.20;;
7029;SDS011;3556;53.500;10.176;2022-08-01T04:09:21;8.40;;;7.73;;
7029;SDS011;3556;53.500;10.176;2022-08-01T04:11:47;7.30;;;6.70;;
7029;SDS011;3556;53.500;10.176;2022-08-01T04:14:14;7.27;;;6.73;;
7029;SDS011;3556;53.500;10.176;2022-08-01T04:16:39;6.47;;;6.03;;
7029;SDS011;3556;53.500;10.176;2022-08-01T04:19:05;6.13;;;5.60;;
7029;SDS011;3556;53.500;10.176;2022-08-01T04:21:32;6.37;;;5.83;;
7029;SDS011;3556;53.500;10.176;2022-08-01T04:24:00;5.83;;;5.33;;
7029;SDS011;3556;53.500;10.176;2022-08-01T04:26:30;7.03;;;5.80;;
7029;SDS011;3556;53.500;10.176;2022-08-01T04:28:57;5.63;;;5.33;;
7029;SDS011;3556;53.500;10.176;2022-08-01T04:31:27;5.80;;;5.50;;
7029;SDS011;3556;53.500;10.176;2022-08-01T04:33:55;5.10;;;4.80;;
7029;SDS011;3556;53.500;10.176;2022-08-01T04:36:22;6.93;;;4.80;;
7029;SDS011;3556;53.500;10.176;2022-08-01T04:38:50;4.90;;;4.60;;
7029;SDS011;3556;53.500;10.176;2022-08-01T04:41:20;7.63;;;4.67;;
7029;SDS011;3556;53.500;10.176;2022-08-01T04:43:48;4.67;;;4.57;;
7029;SDS011;3556;53.500;10.176;2022-08-01T04:46:14;5.33;;;4.93;;
7029;SDS011;3556;53.500;10.176;2022-08-01T04:48:40;6.07;;;4.93;;
7029;SDS011;3556;53.500;10.176;2022-08-01T04:51:13;6.20;;;5.30;;
7029;SDS011;3556;53.500;10.176;2022-08-01T04:53:43;5.67;;;5.27;;
7029;SDS011;3556;53.500;10.176;2022-08-01T04:56:11;5.70;;;5.00;;
7029;SDS011;3556;53.500;10.176;2022-08-01T04:58:38;6.87;;;4.97;;
7029;SDS011;3556;53.500;10.176;2022-08-01T05:01:05;4.33;;;4.23;;
7029;SDS011;3556;53.500;10.176;2022-08-01T05:03:31;4.47;;;4.27;;
7029;SDS011;3556;53.500;10.176;2022-08-01T05:05:56;4.87;;;4.57;;
7029;SDS011;3556;53.500;10.176;2022-08-01T05:08:22;3.60;;;3.50;;
7029;SDS011;3556;53.500;10.176;2022-08-01T05:10:48;4.47;;;4.07;;
7029;SDS011;3556;53.500;10.176;2022-08-01T05:13:13;3.60;;;3.47;;
7029;SDS011;3556;53.500;10.176;2022-08-01T05:15:39;4.33;;;4.00;;
7029;SDS011;3556;53.500;10.176;2022-08-01T05:18:06;3.50;;;3.40;;
7029;SDS011;3556;53.500;10.176;2022-08-01T05:20:31;5.63;;;3.60;;
7029;SDS011;3556;53.500;10.176;2022-08-01T05:22:57;3.70;;;3.60;;
7029;SDS011;3556;53.500;10.176;2022-08-01T05:25:23;3.90;;;3.73;;
7029;SDS011;3556;53.500;10.176;2022-08-01T05:27:49;7.33;;;2.70;;
7029;SDS011;3556;53.500;10.176;2022-08-01T05:30:15;3.27;;;2.97;;
7029;SDS011;3556;53.500;10.176;2022-08-01T05:32:40;3.30;;;3.20;;
7029;SDS011;3556;53.500;10.176;2022-08-01T05:35:07;2.90;;;2.80;;
7029;SDS011;3556;53.500;10.176;2022-08-01T05:37:33;3.30;;;3.00;;
7029;SDS011;3556;53.500;10.176;2022-08-01T05:39:59;2.30;;;2.20;;
7029;SDS011;3556;53.500;10.176;2022-08-01T05:42:24;2.50;;;2.40;;
7029;SDS011;3556;53.500;10.176;2022-08-01T05:44:50;4.30;;;1.80;;
7029;SDS011;3556;53.500;10.176;2022-08-01T05:47:16;1.90;;;1.90;;
7029;SDS011;3556;53.500;10.176;2022-08-01T05:49:43;2.00;;;1.90;;
7029;SDS011;3556;53.500;10.176;2022-08-01T05:52:09;5.83;;;2.00;;
7029;SDS011;3556;53.500;10.176;2022-08-01T05:54:35;2.47;;;2.33;;
7029;SDS011;3556;53.500;10.176;2022-08-01T05:57:00;2.00;;;2.00;;
7029;SDS011;3556;53.500;10.176;2022-08-01T05:59:27;2.30;;;2.20;;
7029;SDS011;3556;53.500;10.176;2022-08-01T06:01:53;2.07;;;2.00;;
7029;SDS011;3556;53.500;10.176;2022-08-01T06:04:19;3.73;;;2.33;;
7029;SDS011;3556;53.500;10.176;2022-08-01T06:06:44;2.70;;;2.53;;
7029;SDS011;3556;53.500;10.176;2022-08-01T06:09:10;3.63;;;2.53;;
7029;SDS011;3556;53.500;10.176;2022-08-01T06:11:36;2.60;;;2.40;;
7029;SDS011;3556;53.500;10.176;2022-08-01T06:14:01;2.53;;;2.43;;
7029;SDS011;3556;53.500;10.176;2022-08-01T06:16:27;3.07;;;2.47;;
7029;SDS011;3556;53.500;10.176;2022-08-01T06:18:53;2.43;;;2.23;;
7029;SDS011;3556;53.500;10.176;2022-08-01T06:21:18;3.57;;;2.60;;
7029;SDS011;3556;53.500;10.176;2022-08-01T06:23:44;2.70;;;2.50;;
7029;SDS011;3556;53.500;10.176;2022-08-01T06:26:10;3.13;;;2.93;;
7029;SDS011;3556;53.500;10.176;2022-08-01T06:28:36;2.90;;;2.70;;
7029;SDS011;3556;53.500;10.176;2022-08-01T06:31:02;3.77;;;3.50;;
7029;SDS011;3556;53.500;10.176;2022-08-01T06:33:27;3.63;;;3.47;;
7029;SDS011;3556;53.500;10.176;2022-08-01T06:35:53;3.67;;;3.17;;
7029;SDS011;3556;53.500;10.176;2022-08-01T06:38:19;3.50;;;3.30;;
7029;SDS011;3556;53.500;10.176;2022-08-01T06:40:44;3.90;;;3.70;;
7029;SDS011;3556;53.500;10.176;2022-08-01T06:43:10;4.67;;;4.23;;
7029;SDS011;3556;53.500;10.176;2022-08-01T06:45:37;4.87;;;4.43;;
7029;SDS011;3556;53.500;10.176;2022-08-01T06:48:06;10.97;;;5.37;;
7029;SDS011;3556;53.500;10.176;2022-08-01T06:50:32;7.30;;;5.30;;
7029;SDS011;3556;53.500;10.176;2022-08-01T06:52:57;7.60;;;4.90;;
7029;SDS011;3556;53.500;10.176;2022-08-01T06:55:23;12.23;;;4.60;;
7029;SDS011;3556;53.500;10.176;2022-08-01T06:57:50;5.27;;;4.77;;
7029;SDS011;3556;53.500;10.176;2022-08-01T07:00:18;3.90;;;3.60;;
7029;SDS011;3556;53.500;10.176;2022-08-01T07:02:51;5.80;;;3.90;;
7029;SDS011;3556;53.500;10.176;2022-08-01T07:05:18;6.10;;;3.97;;
7029;SDS011;3556;53.500;10.176;2022-08-01T07:07:45;4.73;;;3.93;;
7029;SDS011;3556;53.500;10.176;2022-08-01T07:10:11;4.53;;;4.27;;
7029;SDS011;3556;53.500;10.176;2022-08-01T07:12:37;8.27;;;5.17;;
7029;SDS011;3556;53.500;10.176;2022-08-01T07:15:06;6.80;;;6.27;;
7029;SDS011;3556;53.500;10.176;2022-08-01T07:17:36;6.90;;;6.30;;
7029;SDS011;3556;53.500;10.176;2022-08-01T07:20:03;7.03;;;6.43;;
7029;SDS011;3556;53.500;10.176;2022-08-01T07:22:30;7.50;;;7.00;;
7029;SDS011;3556;53.500;10.176;2022-08-01T07:24:56;7.40;;;6.80;;
7029;SDS011;3556;53.500;10.176;2022-08-01T07:27:21;11.30;;;6.73;;
7029;SDS011;3556;53.500;10.176;2022-08-01T07:29:47;7.37;;;6.90;;
7029;SDS011;3556;53.500;10.176;2022-08-01T07:32:12;8.63;;;6.63;;
7029;SDS011;3556;53.500;10.176;2022-08-01T07:34:38;8.30;;;6.90;;
7029;SDS011;3556;53.500;10.176;2022-08-01T07:37:04;9.10;;;6.37;;
7029;SDS011;3556;53.500;10.176;2022-08-01T07:39:29;10.67;;;6.60;;
7029;SDS011;3556;53.500;10.176;2022-08-01T07:41:55;12.00;;;6.80;;
7029;SDS011;3556;53.500;10.176;2022-08-01T07:44:21;7.57;;;6.77;;
7029;SDS011;3556;53.500;10.176;2022-08-01T07:46:46;7.83;;;6.33;;
7029;SDS011;3556;53.500;10.176;2022-08-01T07:49:12;5.93;;;5.37;;
7029;SDS011;3556;53.500;10.176;2022-08-01T07:51:38;7.63;;;6.43;;
7029;SDS011;3556;53.500;10.176;2022-08-01T07:54:03;9.77;;;6.90;;
7029;SDS011;3556;53.500;10.176;2022-08-01T07:56:29;7.93;;;7.13;;
7029;SDS011;3556;53.500;10.176;2022-08-01T07:58:55;7.27;;;6.40;;
7029;SDS011;3556;53.500;10.176;2022-08-01T08:01:20;12.67;;;6.80;;
7029;SDS011;3556;53.500;10.176;2022-08-01T08:03:46;7.13;;;6.53;;
7029;SDS011;3556;53.500;10.176;2022-08-01T08:06:12;13.50;;;7.80;;
7029;SDS011;3556;53.500;10.176;2022-08-01T08:08:38;8.13;;;7.33;;
7029;SDS011;3556;53.500;10.176;2022-08-01T08:11:04;7.03;;;6.30;;
7029;SDS011;3556;53.500;10.176;2022-08-01T08:13:29;11.27;;;7.03;;
7029;SDS011;3556;53.500;10.176;2022-08-01T08:15:55;8.87;;;6.50;;
7029;SDS011;3556;53.500;10.176;2022-08-01T08:18:23;12.83;;;7.70;;
7029;SDS011;3556;53.500;10.176;2022-08-01T08:20:48;26.80;;;8.57;;
7029;SDS011;3556;53.500;10.176;2022-08-01T08:23:14;15.33;;;7.60;;
7029;SDS011;3556;53.500;10.176;2022-08-01T08:25:58;9.60;;;7.53;;
7029;SDS011;3556;53.500;10.176;2022-08-01T08:28:24;14.80;;;7.20;;
7029;SDS011;3556;53.500;10.176;2022-08-01T08:30:50;10.43;;;6.93;;
7029;SDS011;3556;53.500;10.176;2022-08-01T08:33:15;7.83;;;6.00;;
7029;SDS011;3556;53.500;10.176;2022-08-01T08:35:41;9.50;;;5.23;;
7029;SDS011;3556;53.500;10.176;2022-08-01T08:38:07;11.93;;;5.17;;
7029;SDS011;3556;53.500;10.176;2022-08-01T08:40:33;12.43;;;5.13;;
7029;SDS011;3556;53.500;10.176;2022-08-01T08:43:00;6.63;;;4.10;;
7029;SDS011;3556;53.500;10.176;2022-08-01T08:45:29;7.27;;;4.07;;
7029;SDS011;3556;53.500;10.176;2022-08-01T08:47:55;12.13;;;4.50;;
7029;SDS011;3556;53.500;10.176;2022-08-01T08:50:22;10.73;;;3.60;;
7029;SDS011;3556;53.500;10.176;2022-08-01T08:52:49;8.77;;;3.10;;
7029;SDS011;3556;53.500;10.176;2022-08-01T08:55:17;8.43;;;3.30;;
7029;SDS011;3556;53.500;10.176;2022-08-01T08:57:44;5.37;;;3.27;;
7029;SDS011;3556;53.500;10.176;2022-08-01T09:00:10;14.33;;;3.17;;
7029;SDS011;3556;53.500;10.176;2022-08-01T09:02:42;4.33;;;3.07;;
7029;SDS011;3556;53.500;10.176;2022-08-01T09:05:12;7.17;;;3.33;;
7029;SDS011;3556;53.500;10.176;2022-08-01T09:07:38;7.43;;;2.70;;
7029;SDS011;3556;53.500;10.176;2022-08-01T09:10:04;4.50;;;2.57;;
7029;SDS011;3556;53.500;10.176;2022-08-01T09:12:30;6.37;;;3.17;;
7029;SDS011;3556;53.500;10.176;2022-08-01T09:14:56;2.20;;;2.00;;
7029;SDS011;3556;53.500;10.176;2022-08-01T09:17:22;4.80;;;2.47;;
7029;SDS011;3556;53.500;10.176;2022-08-01T09:19:50;3.93;;;2.40;;
7029;SDS011;3556;53.500;10.176;2022-08-01T09:22:23;5.97;;;2.63;;
7029;SDS011;3556;53.500;10.176;2022-08-01T09:25:00;3.60;;;2.17;;
7029;SDS011;3556;53.500;10.176;2022-08-01T09:27:34;2.30;;;2.10;;
7029;SDS011;3556;53.500;10.176;2022-08-01T09:30:16;5.83;;;2.33;;
7029;SDS011;3556;53.500;10.176;2022-08-01T09:32:52;3.40;;;2.13;;
7029;SDS011;3556;53.500;10.176;2022-08-01T09:35:26;3.37;;;2.30;;
7029;SDS011;3556;53.500;10.176;2022-08-01T09:43:11;5.03;;;2.67;;
7029;SDS011;3556;53.500;10.176;2022-08-01T09:45:37;7.03;;;3.03;;
7029;SDS011;3556;53.500;10.176;2022-08-01T09:48:07;5.17;;;2.73;;
7029;SDS011;3556;53.500;10.176;2022-08-01T09:50:40;6.97;;;3.10;;
7029;SDS011;3556;53.500;10.176;2022-08-01T09:53:10;8.63;;;2.80;;
7029;SDS011;3556;53.500;10.176;2022-08-01T09:55:36;6.13;;;2.57;;
7029;SDS011;3556;53.500;10.176;2022-08-01T09:58:03;7.30;;;2.30;;
7029;SDS011;3556;53.500;10.176;2022-08-01T10:00:30;5.43;;;2.83;;
7029;SDS011;3556;53.500;10.176;2022-08-01T10:03:00;6.80;;;2.90;;
7029;SDS011;3556;53.500;10.176;2022-08-01T10:05:43;7.50;;;2.60;;
7029;SDS011;3556;53.500;10.176;2022-08-01T10:08:09;9.63;;;2.87;;
7029;SDS011;3556;53.500;10.176;2022-08-01T10:10:37;10.77;;;2.33;;
7029;SDS011;3556;53.500;10.176;2022-08-01T10:13:03;5.80;;;2.80;;
7029;SDS011;3556;53.500;10.176;2022-08-01T10:15:29;4.43;;;2.43;;
7029;SDS011;3556;53.500;10.176;2022-08-01T10:17:57;4.87;;;2.40;;
7029;SDS011;3556;53.500;10.176;2022-08-01T10:20:29;3.10;;;2.17;;
7029;SDS011;3556;53.500;10.176;2022-08-01T10:23:00;9.30;;;2.63;;
7029;SDS011;3556;53.500;10.176;2022-08-01T10:25:27;3.17;;;2.60;;
7029;SDS011;3556;53.500;10.176;2022-08-01T10:27:53;8.83;;;3.00;;
7029;SDS011;3556;53.500;10.176;2022-08-01T10:30:21;6.50;;;2.83;;
7029;SDS011;3556;53.500;10.176;2022-08-01T10:32:48;5.93;;;2.77;;
7029;SDS011;3556;53.500;10.176;2022-08-01T10:35:17;4.07;;;2.67;;
7029;SDS011;3556;53.500;10.176;2022-08-01T10:37:44;15.63;;;2.80;;
7029;SDS011;3556;53.500;10.176;2022-08-01T10:40:14;10.33;;;2.77;;
7029;SDS011;3556;53.500;10.176;2022-08-01T10:42:44;5.40;;;2.67;;
7029;SDS011;3556;53.500;10.176;2022-08-01T10:45:12;9.80;;;4.10;;
7029;SDS011;3556;53.500;10.176;2022-08-01T10:47:45;11.50;;;3.70;;
7029;SDS011;3556;53.500;10.176;2022-08-01T10:53:05;5.83;;;3.43;;
7029;SDS011;3556;53.500;10.176;2022-08-01T10:55:46;4.90;;;3.40;;
7029;SDS011;3556;53.500;10.176;2022-08-01T10:58:12;8.83;;;3.43;;
7029;SDS011;3556;53.500;10.176;2022-08-01T11:00:38;5.43;;;3.70;;
7029;SDS011;3556;53.500;10.176;2022-08-01T11:03:03;8.00;;;3.43;;
7029;SDS011;3556;53.500;10.176;2022-08-01T11:05:33;7.10;;;3.20;;
7029;SDS011;3556;53.500;10.176;2022-08-01T11:08:05;3.20;;;2.80;;
7029;SDS011;3556;53.500;10.176;2022-08-01T11:10:39;4.00;;;3.20;;
7029;SDS011;3556;53.500;10.176;2022-08-01T11:13:09;6.20;;;2.80;;
7029;SDS011;3556;53.500;10.176;2022-08-01T11:15:38;11.00;;;2.77;;
7029;SDS011;3556;53.500;10.176;2022-08-01T11:20:59;8.87;;;3.30;;
7029;SDS011;3556;53.500;10.176;2022-08-01T11:23:26;7.30;;;2.63;;
7029;SDS011;3556;53.500;10.176;2022-08-01T11:28:20;4.57;;;2.13;;
7029;SDS011;3556;53.500;10.176;2022-08-01T11:41:35;1.93;;;1.73;;
7029;SDS011;3556;53.500;10.176;2022-08-01T11:54:50;14.63;;;1.40;;
7029;SDS011;3556;53.500;10.176;2022-08-01T11:57:21;4.10;;;2.00;;
7029;SDS011;3556;53.500;10.176;2022-08-01T11:59:52;4.20;;;2.20;;
7029;SDS011;3556;53.500;10.176;2022-08-01T12:02:23;8.83;;;2.50;;
7029;SDS011;3556;53.500;10.176;2022-08-01T12:07:29;5.63;;;1.83;;
7029;SDS011;3556;53.500;10.176;2022-08-01T12:09:57;1.63;;;1.53;;
7029;SDS011;3556;53.500;10.176;2022-08-01T12:12:26;3.10;;;2.07;;
7029;SDS011;3556;53.500;10.176;2022-08-01T12:14:56;4.80;;;1.60;;
7029;SDS011;3556;53.500;10.176;2022-08-01T12:20:00;6.83;;;2.43;;
7029;SDS011;3556;53.500;10.176;2022-08-01T12:22:26;5.70;;;1.90;;
7029;SDS011;3556;53.500;10.176;2022-08-01T12:24:52;7.50;;;1.50;;
7029;SDS011;3556;53.500;10.176;2022-08-01T12:27:28;5.30;;;1.87;;
7029;SDS011;3556;53.500;10.176;2022-08-01T12:29:55;5.80;;;1.50;;
7029;SDS011;3556;53.500;10.176;2022-08-01T12:34:56;1.97;;;1.60;;
7029;SDS011;3556;53.500;10.176;2022-08-01T12:37:25;4.63;;;1.83;;
7029;SDS011;3556;53.500;10.176;2022-08-01T12:39:51;6.93;;;1.83;;
7029;SDS011;3556;53.500;10.176;2022-08-01T12:42:17;3.00;;;1.60;;
7029;SDS011;3556;53.500;10.176;2022-08-01T12:44:44;5.80;;;2.20;;
7029;SDS011;3556;53.500;10.176;2022-08-01T12:47:12;5.33;;;1.83;;
7029;SDS011;3556;53.500;10.176;2022-08-01T12:49:40;5.80;;;1.80;;
7029;SDS011;3556;53.500;10.176;2022-08-01T12:52:08;1.70;;;1.30;;
7029;SDS011;3556;53.500;10.176;2022-08-01T12:57:26;4.10;;;1.30;;
7029;SDS011;3556;53.500;10.176;2022-08-01T12:59:52;2.10;;;1.80;;
7029;SDS011;3556;53.500;10.176;2022-08-01T13:02:32;2.13;;;1.40;;
7029;SDS011;3556;53.500;10.176;2022-08-01T13:04:58;2.63;;;1.63;;
7029;SDS011;3556;53.500;10.176;2022-08-01T13:07:34;5.53;;;1.80;;
7029;SDS011;3556;53.500;10.176;2022-08-01T13:10:10;4.60;;;1.63;;
7029;SDS011;3556;53.500;10.176;2022-08-01T13:12:37;3.73;;;1.83;;
7029;SDS011;3556;53.500;10.176;2022-08-01T13:15:17;1.30;;;1.20;;
7029;SDS011;3556;53.500;10.176;2022-08-01T13:17:44;6.00;;;1.63;;
7029;SDS011;3556;53.500;10.176;2022-08-01T13:20:09;3.47;;;1.60;;
7029;SDS011;3556;53.500;10.176;2022-08-01T13:22:45;6.10;;;1.73;;
7029;SDS011;3556;53.500;10.176;2022-08-01T13:25:12;2.57;;;1.30;;
7029;SDS011;3556;53.500;10.176;2022-08-01T13:27:39;1.93;;;1.50;;
7029;SDS011;3556;53.500;10.176;2022-08-01T13:30:14;3.30;;;1.77;;
7029;SDS011;3556;53.500;10.176;2022-08-01T13:32:41;6.40;;;1.77;;
7029;SDS011;3556;53.500;10.176;2022-08-01T13:35:09;4.00;;;1.70;;
7029;SDS011;3556;53.500;10.176;2022-08-01T13:37:41;2.07;;;1.40;;
7029;SDS011;3556;53.500;10.176;2022-08-01T13:40:08;3.70;;;1.50;;
7029;SDS011;3556;53.500;10.176;2022-08-01T13:42:35;1.10;;;1.03;;
7029;SDS011;3556;53.500;10.176;2022-08-01T13:45:01;3.37;;;1.50;;
7029;SDS011;3556;53.500;10.176;2022-08-01T13:47:28;4.10;;;1.10;;
7029;SDS011;3556;53.500;10.176;2022-08-01T13:49:53;2.10;;;1.53;;
7029;SDS011;3556;53.500;10.176;2022-08-01T13:52:19;5.27;;;1.90;;
7029;SDS011;3556;53.500;10.176;2022-08-01T13:54:44;3.50;;;1.20;;
7029;SDS011;3556;53.500;10.176;2022-08-01T13:57:10;5.53;;;1.60;;
7029;SDS011;3556;53.500;10.176;2022-08-01T13:59:36;3.87;;;1.40;;
7029;SDS011;3556;53.500;10.176;2022-08-01T14:02:01;3.13;;;2.03;;
7029;SDS011;3556;53.500;10.176;2022-08-01T14:04:27;2.93;;;1.73;;
7029;SDS011;3556;53.500;10.176;2022-08-01T14:06:53;4.17;;;1.70;;
7029;SDS011;3556;53.500;10.176;2022-08-01T14:09:18;6.47;;;1.93;;
7029;SDS011;3556;53.500;10.176;2022-08-01T14:11:47;2.40;;;1.57;;
7029;SDS011;3556;53.500;10.176;2022-08-01T14:14:13;3.37;;;1.60;;
7029;SDS011;3556;53.500;10.176;2022-08-01T14:16:39;4.60;;;1.67;;
7029;SDS011;3556;53.500;10.176;2022-08-01T14:19:04;2.70;;;1.10;;
7029;SDS011;3556;53.500;10.176;2022-08-01T14:21:30;9.20;;;1.90;;
7029;SDS011;3556;53.500;10.176;2022-08-01T14:23:56;3.73;;;1.70;;
7029;SDS011;3556;53.500;10.176;2022-08-01T14:26:22;5.10;;;1.70;;
7029;SDS011;3556;53.500;10.176;2022-08-01T14:28:47;5.17;;;1.33;;
7029;SDS011;3556;53.500;10.176;2022-08-01T14:31:13;4.17;;;2.13;;
7029;SDS011;3556;53.500;10.176;2022-08-01T14:33:38;9.13;;;1.83;;
7029;SDS011;3556;53.500;10.176;2022-08-01T14:36:04;4.57;;;1.83;;
7029;SDS011;3556;53.500;10.176;2022-08-01T14:38:30;3.60;;;1.87;;
7029;SDS011;3556;53.500;10.176;2022-08-01T14:40:56;3.77;;;1.50;;
7029;SDS011;3556;53.500;10.176;2022-08-01T14:43:21;4.07;;;1.73;;
7029;SDS011;3556;53.500;10.176;2022-08-01T14:45:47;1.87;;;1.30;;
7029;SDS011;3556;53.500;10.176;2022-08-01T14:48:17;4.53;;;1.97;;
7029;SDS011;3556;53.500;10.176;2022-08-01T14:50:43;5.53;;;1.50;;
7029;SDS011;3556;53.500;10.176;2022-08-01T14:53:09;4.57;;;1.50;;
7029;SDS011;3556;53.500;10.176;2022-08-01T14:55:35;3.73;;;1.50;;
7029;SDS011;3556;53.500;10.176;2022-08-01T14:58:00;5.63;;;1.70;;
7029;SDS011;3556;53.500;10.176;2022-08-01T15:00:26;2.40;;;1.67;;
7029;SDS011;3556;53.500;10.176;2022-08-01T15:02:52;4.93;;;1.40;;
7029;SDS011;3556;53.500;10.176;2022-08-01T15:05:17;3.27;;;1.53;;
7029;SDS011;3556;53.500;10.176;2022-08-01T15:07:43;1.53;;;1.40;;
7029;SDS011;3556;53.500;10.176;2022-08-01T15:10:09;3.77;;;1.50;;
7029;SDS011;3556;53.500;10.176;2022-08-01T15:12:34;7.60;;;1.50;;
7029;SDS011;3556;53.500;10.176;2022-08-01T15:15:00;2.60;;;1.70;;
7029;SDS011;3556;53.500;10.176;2022-08-01T15:17:27;2.80;;;1.60;;
7029;SDS011;3556;53.500;10.176;2022-08-01T15:19:56;9.53;;;1.70;;
7029;SDS011;3556;53.500;10.176;2022-08-01T15:22:23;5.67;;;1.97;;
7029;SDS011;3556;53.500;10.176;2022-08-01T15:24:51;4.53;;;1.43;;
7029;SDS011;3556;53.500;10.176;2022-08-01T15:27:18;4.20;;;1.57;;
7029;SDS011;3556;53.500;10.176;2022-08-01T15:29:44;5.90;;;1.53;;
7029;SDS011;3556;53.500;10.176;2022-08-01T15:32:10;1.77;;;1.60;;
7029;SDS011;3556;53.500;10.176;2022-08-01T15:34:37;3.70;;;2.07;;
7029;SDS011;3556;53.500;10.176;2022-08-01T15:37:03;2.40;;;1.20;;
7029;SDS011;3556;53.500;10.176;2022-08-01T15:39:29;2.30;;;1.47;;
7029;SDS011;3556;53.500;10.176;2022-08-01T15:41:59;5.10;;;2.20;;
7029;SDS011;3556;53.500;10.176;2022-08-01T15:44:28;2.60;;;1.50;;
7029;SDS011;3556;53.500;10.176;2022-08-01T15:46:54;4.63;;;1.63;;
7029;SDS011;3556;53.500;10.176;2022-08-01T15:49:19;3.93;;;1.90;;
7029;SDS011;3556;53.500;10.176;2022-08-01T15:51:47;4.83;;;1.87;;
7029;SDS011;3556;53.500;10.176;2022-08-01T15:54:16;2.60;;;1.90;;
7029;SDS011;3556;53.500;10.176;2022-08-01T15:56:42;4.83;;;1.83;;
7029;SDS011;3556;53.500;10.176;2022-08-01T15:59:08;6.37;;;1.87;;
7029;SDS011;3556;53.500;10.176;2022-08-01T16:01:34;4.60;;;1.77;;